createdAt,value
2018-08-04T00:00:42.970Z,3.57
2018-08-04T00:03:11.025Z,3.80
2018-08-04T00:05:40.338Z,3.37
2018-08-04T00:08:08.384Z,3.50
2018-08-04T00:10:36.914Z,4.03
2018-08-04T00:13:05.042Z,3.80
2018-08-04T00:15:33.138Z,3.33
2018-08-04T00:18:01.235Z,3.30
2018-08-04T00:20:29.325Z,3.30
2018-08-04T00:22:58.038Z,3.40
2018-08-04T00:25:26.161Z,3.30
2018-08-04T00:27:54.209Z,3.13
2018-08-04T00:30:22.301Z,3.13
2018-08-04T00:32:50.369Z,3.27
2018-08-04T00:35:18.526Z,3.20
2018-08-04T00:37:46.607Z,3.37
2018-08-04T00:40:14.734Z,3.27
2018-08-04T00:42:43.089Z,3.50
2018-08-04T00:45:10.969Z,3.23
2018-08-04T00:47:39.066Z,3.60
2018-08-04T00:50:09.258Z,3.30
2018-08-04T00:52:37.333Z,3.30
2018-08-04T00:55:05.466Z,3.90
2018-08-04T00:57:33.533Z,3.20
2018-08-04T01:00:01.610Z,3.50
2018-08-04T01:02:29.703Z,2.97
2018-08-04T01:04:57.865Z,3.13
2018-08-04T01:07:25.924Z,3.40
2018-08-04T01:09:54.901Z,3.33
2018-08-04T01:12:22.982Z,3.23
2018-08-04T01:14:51.053Z,3.30
2018-08-04T01:17:19.113Z,3.20
2018-08-04T01:19:47.198Z,3.10
2018-08-04T01:22:15.274Z,2.90
2018-08-04T01:24:43.351Z,3.40
2018-08-04T01:27:11.401Z,3.40
2018-08-04T01:29:39.483Z,3.13
2018-08-04T01:32:07.555Z,3.03
2018-08-04T01:34:35.654Z,3.50
2018-08-04T01:37:03.738Z,3.40
2018-08-04T01:39:31.609Z,3.30
2018-08-04T01:41:59.662Z,3.37
2018-08-04T01:44:28.370Z,3.17
2018-08-04T01:46:56.430Z,2.97
2018-08-04T01:49:24.516Z,3.30
2018-08-04T01:51:52.602Z,3.30
2018-08-04T01:54:20.690Z,3.23
2018-08-04T01:56:48.802Z,3.40
2018-08-04T01:59:16.955Z,3.17
2018-08-04T02:01:45.019Z,3.37
2018-08-04T02:04:13.090Z,3.10
2018-08-04T02:06:41.149Z,3.27
2018-08-04T02:09:10.431Z,3.27
2018-08-04T02:11:38.597Z,3.50
2018-08-04T02:14:06.691Z,3.10
2018-08-04T02:16:34.801Z,3.40
2018-08-04T02:19:02.896Z,3.43
2018-08-04T02:21:31.018Z,3.30
2018-08-04T02:23:59.097Z,3.67
2018-08-04T02:26:27.170Z,3.67
2018-08-04T02:28:55.241Z,3.60
2018-08-04T02:31:23.314Z,3.40
2018-08-04T02:33:51.394Z,3.73
2018-08-04T02:36:19.471Z,3.40
2018-08-04T02:38:48.171Z,3.83
2018-08-04T02:41:16.232Z,3.57
2018-08-04T02:43:44.329Z,3.37
2018-08-04T02:46:12.386Z,3.53
2018-08-04T02:48:40.462Z,3.60
2018-08-04T02:51:08.538Z,3.50
2018-08-04T02:53:36.625Z,3.50
2018-08-04T02:56:04.742Z,3.60
2018-08-04T02:58:32.820Z,3.50
2018-08-04T03:01:00.881Z,3.77
2018-08-04T03:03:28.951Z,3.73
2018-08-04T03:05:57.025Z,3.80
2018-08-04T03:08:25.436Z,3.17
2018-08-04T03:10:53.481Z,3.50
2018-08-04T03:13:21.543Z,3.73
2018-08-04T03:15:49.607Z,4.03
2018-08-04T03:18:17.874Z,3.90
2018-08-04T03:20:45.974Z,3.93
2018-08-04T03:23:14.049Z,3.90
2018-08-04T03:25:42.114Z,4.13
2018-08-04T03:28:10.166Z,3.90
2018-08-04T03:30:38.216Z,4.10
2018-08-04T03:33:06.320Z,4.13
2018-08-04T03:35:34.460Z,4.13
2018-08-04T03:38:02.530Z,4.30
2018-08-04T03:40:30.593Z,4.10
2018-08-04T03:42:58.671Z,4.13
2018-08-04T03:45:26.822Z,4.07
2018-08-04T03:47:55.149Z,4.10
2018-08-04T03:50:23.223Z,3.90
2018-08-04T03:52:51.345Z,4.07
2018-08-04T03:55:19.398Z,4.50
2018-08-04T03:57:47.457Z,4.10
2018-08-04T04:00:15.523Z,4.07
2018-08-04T04:02:43.601Z,4.30
2018-08-04T04:05:11.666Z,4.30
2018-08-04T04:07:39.745Z,4.20
2018-08-04T04:10:07.817Z,4.33
2018-08-04T04:12:35.913Z,4.30
2018-08-04T04:15:04.910Z,4.50
2018-08-04T04:17:38.479Z,4.90
2018-08-04T04:20:08.061Z,4.07
2018-08-04T04:22:36.133Z,4.80
2018-08-04T04:25:04.601Z,4.43
2018-08-04T04:27:32.695Z,4.30
2018-08-04T04:30:00.761Z,4.70
2018-08-04T04:32:28.848Z,4.50
2018-08-04T04:34:56.909Z,4.73
2018-08-04T04:37:24.974Z,4.30
2018-08-04T04:39:53.033Z,4.90
2018-08-04T04:42:21.336Z,4.60
2018-08-04T04:44:49.407Z,4.37
2018-08-04T04:47:17.482Z,4.30
2018-08-04T04:49:45.552Z,4.77
2018-08-04T04:52:13.625Z,4.50
2018-08-04T04:54:41.694Z,4.30
2018-08-04T04:57:09.741Z,4.60
2018-08-04T04:59:37.808Z,4.03
2018-08-04T05:02:05.933Z,4.87
2018-08-04T05:04:33.968Z,4.27
2018-08-04T05:07:02.032Z,4.00
2018-08-04T05:09:30.089Z,4.47
2018-08-04T05:11:58.170Z,4.47
2018-08-04T05:14:26.242Z,4.20
2018-08-04T05:16:54.125Z,4.07
2018-08-04T05:19:22.191Z,4.47
2018-08-04T05:21:50.254Z,4.50
2018-08-04T05:24:18.336Z,4.40
2018-08-04T05:26:46.406Z,3.93
2018-08-04T05:29:14.705Z,4.33
2018-08-04T05:31:43.065Z,4.33
2018-08-04T05:34:11.150Z,4.30
2018-08-04T05:36:40.111Z,4.40
2018-08-04T05:39:09.236Z,4.60
2018-08-04T05:41:37.347Z,4.27
2018-08-04T05:44:05.469Z,4.17
2018-08-04T05:46:33.521Z,4.17
2018-08-04T05:49:01.602Z,4.40
2018-08-04T05:51:29.683Z,4.13
2018-08-04T05:53:57.745Z,4.40
2018-08-04T05:56:25.809Z,3.73
2018-08-04T05:58:54.290Z,4.50
2018-08-04T06:01:22.346Z,4.07
2018-08-04T06:03:50.414Z,4.70
2018-08-04T06:06:18.489Z,4.33
2018-08-04T06:08:46.573Z,4.17
2018-08-04T06:11:15.525Z,3.93
2018-08-04T06:13:43.607Z,4.10
2018-08-04T06:16:11.670Z,3.93
2018-08-04T06:18:39.737Z,3.80
2018-08-04T06:21:07.800Z,4.00
2018-08-04T06:23:35.878Z,3.97
2018-08-04T06:26:04.436Z,3.80
2018-08-04T06:28:32.505Z,4.67
2018-08-04T06:31:00.590Z,4.17
2018-08-04T06:33:28.731Z,4.47
2018-08-04T06:35:57.989Z,4.37
2018-08-04T06:38:26.080Z,4.00
2018-08-04T06:40:54.153Z,3.73
2018-08-04T06:43:22.269Z,4.33
2018-08-04T06:45:50.328Z,4.13
2018-08-04T06:48:18.487Z,4.27
2018-08-04T06:50:46.559Z,4.37
2018-08-04T06:53:14.653Z,4.43
2018-08-04T06:55:43.631Z,4.90
2018-08-04T06:58:11.723Z,5.00
2018-08-04T07:00:39.794Z,4.60
2018-08-04T07:03:08.034Z,4.73
2018-08-04T07:05:36.115Z,4.80
2018-08-04T07:08:04.260Z,5.00
2018-08-04T07:10:33.317Z,4.70
2018-08-04T07:13:01.514Z,4.70
2018-08-04T07:15:29.848Z,4.80
2018-08-04T07:17:58.104Z,4.73
2018-08-04T07:20:26.217Z,4.63
2018-08-04T07:22:54.319Z,4.93
2018-08-04T07:25:22.393Z,5.53
2018-08-04T07:27:50.482Z,5.87
2018-08-04T07:30:18.575Z,7.07
2018-08-04T07:32:46.672Z,6.43
2018-08-04T07:35:14.852Z,10.87
2018-08-04T07:37:43.864Z,6.80
2018-08-04T07:40:12.003Z,6.30
2018-08-04T07:42:40.669Z,7.07
2018-08-04T07:45:08.913Z,10.10
2018-08-04T07:47:37.093Z,7.13
2018-08-04T07:50:05.162Z,6.63
2018-08-04T07:52:33.281Z,6.70
2018-08-04T07:55:01.470Z,6.07
2018-08-04T07:57:29.573Z,7.00
2018-08-04T07:59:57.693Z,6.67
2018-08-04T08:02:25.787Z,6.60
2018-08-04T08:04:55.054Z,6.53
2018-08-04T08:07:24.719Z,6.90
2018-08-04T08:09:53.494Z,6.73
2018-08-04T08:12:21.782Z,6.43
2018-08-04T08:14:49.908Z,7.57
2018-08-04T08:17:18.014Z,9.40
2018-08-04T08:19:46.111Z,6.83
2018-08-04T08:22:14.253Z,6.60
2018-08-04T08:24:42.399Z,6.83
2018-08-04T08:27:10.473Z,7.00
2018-08-04T08:29:38.542Z,6.50
2018-08-04T08:32:06.879Z,7.30
2018-08-04T08:34:34.946Z,7.50
2018-08-04T08:37:03.030Z,7.67
2018-08-04T08:39:31.266Z,6.43
2018-08-04T08:41:59.402Z,8.50
2018-08-04T08:44:27.511Z,6.77
2018-08-04T08:46:55.939Z,9.90
2018-08-04T08:49:25.818Z,6.80
2018-08-04T08:51:53.877Z,6.13
2018-08-04T08:54:21.935Z,6.10
2018-08-04T08:56:50.101Z,8.80
2018-08-04T08:59:18.248Z,7.07
2018-08-04T09:01:46.346Z,5.43
2018-08-04T09:04:14.480Z,6.00
2018-08-04T09:06:42.594Z,5.60
2018-08-04T09:09:11.229Z,5.77
2018-08-04T09:11:39.346Z,6.70
2018-08-04T09:14:07.473Z,6.30
2018-08-04T09:16:39.173Z,6.43
2018-08-04T09:19:08.489Z,5.40
2018-08-04T09:21:38.475Z,6.00
2018-08-04T09:24:09.906Z,7.90
2018-08-04T09:26:38.729Z,10.67
2018-08-04T09:29:06.822Z,7.30
2018-08-04T09:31:35.149Z,5.40
2018-08-04T09:34:03.241Z,5.83
2018-08-04T09:36:31.339Z,5.67
2018-08-04T09:38:59.487Z,5.03
2018-08-04T09:41:27.605Z,5.50
2018-08-04T09:43:56.894Z,5.53
2018-08-04T09:46:24.969Z,7.05
2018-08-04T09:48:53.046Z,6.47
2018-08-04T09:51:21.113Z,6.40
2018-08-04T09:53:49.229Z,6.05
2018-08-04T09:56:17.385Z,6.08
2018-08-04T09:58:45.461Z,5.58
2018-08-04T10:01:19.192Z,6.03
2018-08-04T10:03:48.889Z,5.70
2018-08-04T10:06:16.967Z,5.60
2018-08-04T10:08:45.050Z,6.10
2018-08-04T10:11:14.343Z,6.20
2018-08-04T10:13:42.404Z,6.08
2018-08-04T10:16:10.565Z,6.25
2018-08-04T10:18:39.545Z,5.95
2018-08-04T10:21:08.293Z,5.83
2018-08-04T10:23:36.349Z,5.72
2018-08-04T10:26:04.524Z,6.20
2018-08-04T10:28:32.634Z,6.03
2018-08-04T10:31:01.936Z,5.70
2018-08-04T10:33:37.118Z,6.08
2018-08-04T10:36:06.558Z,5.67
2018-08-04T10:38:35.479Z,5.92
2018-08-04T10:41:06.464Z,5.60
2018-08-04T10:43:35.289Z,5.72
2018-08-04T10:46:03.470Z,5.40
2018-08-04T10:48:37.681Z,5.50
2018-08-04T10:51:06.253Z,5.60
2018-08-04T10:53:34.361Z,5.80
2018-08-04T10:56:03.061Z,5.67
2018-08-04T10:58:31.640Z,5.90
2018-08-04T11:00:59.777Z,6.22
2018-08-04T11:03:28.405Z,6.60
2018-08-04T11:05:56.623Z,5.92
2018-08-04T11:08:24.694Z,6.40
2018-08-04T11:10:53.813Z,6.15
2018-08-04T11:13:22.449Z,5.95
2018-08-04T11:15:51.564Z,5.85
2018-08-04T11:18:20.630Z,6.12
2018-08-04T11:20:48.776Z,6.08
2018-08-04T11:23:18.389Z,6.62
2018-08-04T11:25:46.486Z,5.80
2018-08-04T11:28:14.558Z,6.40
2018-08-04T11:30:43.427Z,6.25
2018-08-04T11:33:13.044Z,6.85
2018-08-04T11:35:42.233Z,6.28
2018-08-04T11:38:10.416Z,5.80
2018-08-04T11:40:38.799Z,6.08
2018-08-04T11:43:07.423Z,5.83
2018-08-04T11:45:35.946Z,6.42
2018-08-04T11:48:04.866Z,5.97
2018-08-04T11:50:42.572Z,5.87
2018-08-04T11:53:13.132Z,5.90
2018-08-04T11:55:42.098Z,5.67
2018-08-04T11:58:11.194Z,5.87
2018-08-04T12:00:39.344Z,5.97
2018-08-04T12:03:07.447Z,6.12
2018-08-04T12:05:35.544Z,5.80
2018-08-04T12:08:03.616Z,5.50
2018-08-04T12:10:31.722Z,6.05
2018-08-04T12:12:59.849Z,6.40
2018-08-04T12:15:27.962Z,6.58
2018-08-04T12:17:56.074Z,6.42
2018-08-04T12:20:31.234Z,6.90
2018-08-04T12:22:59.404Z,7.10
2018-08-04T12:25:27.515Z,6.85
2018-08-04T12:27:55.612Z,6.80
2018-08-04T12:30:23.714Z,7.20
2018-08-04T12:32:51.841Z,6.90
2018-08-04T12:35:20.002Z,7.10
2018-08-04T12:37:48.089Z,7.10
2018-08-04T12:40:16.195Z,7.03
2018-08-04T12:42:44.304Z,7.03
2018-08-04T12:45:12.450Z,6.93
2018-08-04T12:47:40.566Z,7.20
2018-08-04T12:50:08.665Z,7.23
2018-08-04T12:52:36.773Z,6.83
2018-08-04T12:55:05.038Z,7.03
2018-08-04T12:57:33.145Z,6.97
2018-08-04T13:00:01.278Z,12.43
2018-08-04T13:02:29.427Z,7.50
2018-08-04T13:04:57.527Z,6.90
2018-08-04T13:07:25.638Z,6.83
2018-08-04T13:09:53.788Z,6.30
2018-08-04T13:12:21.927Z,5.90
2018-08-04T13:14:50.039Z,5.70
2018-08-04T13:17:18.134Z,5.58
2018-08-04T13:19:46.849Z,5.72
2018-08-04T13:22:14.967Z,5.70
2018-08-04T13:24:43.820Z,5.65
2018-08-04T13:27:11.910Z,5.90
2018-08-04T13:29:40.075Z,6.05
2018-08-04T13:32:08.158Z,6.28
2018-08-04T13:34:36.303Z,6.70
2018-08-04T13:37:04.380Z,6.63
2018-08-04T13:39:32.474Z,7.20
2018-08-04T13:42:00.545Z,7.30
2018-08-04T13:44:28.657Z,7.10
2018-08-04T13:46:56.786Z,8.33
2018-08-04T13:49:24.875Z,7.73
2018-08-04T13:51:52.970Z,7.67
2018-08-04T13:54:21.338Z,7.97
2018-08-04T13:56:49.475Z,17.47
2018-08-04T13:59:17.341Z,8.17
2018-08-04T14:01:45.437Z,7.80
2018-08-04T14:04:13.565Z,7.70
2018-08-04T14:06:42.518Z,7.53
2018-08-04T14:09:11.496Z,7.70
2018-08-04T14:11:39.782Z,7.37
2018-08-04T14:14:07.857Z,7.50
2018-08-04T14:16:35.975Z,7.63
2018-08-04T14:19:04.192Z,7.33
2018-08-04T14:21:38.610Z,7.90
2018-08-04T14:24:06.689Z,7.47
2018-08-04T14:26:34.814Z,8.03
2018-08-04T14:29:02.913Z,8.10
2018-08-04T14:31:30.990Z,8.10
2018-08-04T14:33:59.130Z,7.50
2018-08-04T14:36:27.241Z,8.07
2018-08-04T14:38:55.873Z,8.17
2018-08-04T14:41:23.970Z,7.83
2018-08-04T14:43:51.884Z,7.90
2018-08-04T14:46:20.023Z,8.20
2018-08-04T14:48:48.785Z,8.07
2018-08-04T14:51:16.847Z,8.13
2018-08-04T14:53:44.930Z,8.70
2018-08-04T14:56:13.330Z,8.17
2018-08-04T14:58:41.396Z,7.60
2018-08-04T15:01:09.514Z,7.20
2018-08-04T15:03:37.600Z,7.67
2018-08-04T15:06:05.676Z,5.80
2018-08-04T15:08:33.756Z,7.33
2018-08-04T15:11:01.958Z,7.50
2018-08-04T15:13:30.097Z,8.00
2018-08-04T15:15:58.243Z,8.50
2018-08-04T15:18:26.419Z,7.93
2018-08-04T15:20:54.609Z,8.07
2018-08-04T15:23:22.763Z,8.47
2018-08-04T15:25:50.892Z,8.30
2018-08-04T15:28:18.997Z,8.47
2018-08-04T15:30:47.153Z,8.20
2018-08-04T15:33:15.059Z,7.97
2018-08-04T15:35:43.208Z,8.10
2018-08-04T15:38:11.657Z,7.93
2018-08-04T15:40:39.789Z,8.17
2018-08-04T15:43:07.877Z,8.63
2018-08-04T15:45:35.990Z,7.97
2018-08-04T15:48:04.157Z,8.20
2018-08-04T15:50:32.203Z,8.20
2018-08-04T15:53:00.298Z,8.80
2018-08-04T15:55:28.404Z,7.80
2018-08-04T15:57:56.517Z,8.23
2018-08-04T16:00:24.604Z,8.60
2018-08-04T16:02:52.722Z,7.67
2018-08-04T16:05:27.444Z,7.80
2018-08-04T16:07:55.529Z,7.67
2018-08-04T16:10:23.617Z,7.97
2018-08-04T16:12:51.726Z,7.80
2018-08-04T16:15:20.060Z,8.87
2018-08-04T16:17:48.561Z,7.93
2018-08-04T16:20:17.993Z,7.63
2018-08-04T16:22:46.080Z,7.70
2018-08-04T16:25:14.777Z,8.43
2018-08-04T16:27:43.075Z,6.60
2018-08-04T16:30:11.417Z,6.90
2018-08-04T16:32:40.228Z,6.83
2018-08-04T16:35:09.020Z,6.63
2018-08-04T16:37:37.224Z,7.03
2018-08-04T16:40:06.107Z,7.37
2018-08-04T16:42:34.703Z,7.03
2018-08-04T16:45:03.766Z,8.13
2018-08-04T16:47:31.854Z,7.27
2018-08-04T16:49:59.918Z,7.30
2018-08-04T16:52:28.034Z,7.20
2018-08-04T16:54:56.214Z,7.47
2018-08-04T16:57:24.298Z,7.40
2018-08-04T16:59:52.384Z,8.07
2018-08-04T17:02:20.465Z,9.53
2018-08-04T17:04:48.394Z,7.87
2018-08-04T17:07:16.455Z,7.67
2018-08-04T17:09:44.604Z,7.43
2018-08-04T17:12:12.711Z,10.10
2018-08-04T17:14:40.794Z,7.30
2018-08-04T17:17:08.869Z,7.33
2018-08-04T17:19:36.953Z,7.30
2018-08-04T17:22:05.106Z,7.50
2018-08-04T17:24:33.183Z,7.50
2018-08-04T17:27:01.296Z,7.50
2018-08-04T17:29:29.370Z,7.17
2018-08-04T17:31:57.498Z,7.60
2018-08-04T17:34:25.562Z,7.63
2018-08-04T17:36:53.700Z,7.77
2018-08-04T17:39:21.803Z,8.27
2018-08-04T17:41:49.906Z,11.97
2018-08-04T17:44:17.978Z,10.10
2018-08-04T17:46:46.054Z,9.60
2018-08-04T17:49:14.121Z,10.33
2018-08-04T17:51:42.206Z,9.13
2018-08-04T17:54:10.257Z,9.60
2018-08-04T17:56:38.343Z,8.93
2018-08-04T17:59:06.228Z,9.43
2018-08-04T18:01:34.324Z,10.07
2018-08-04T18:04:02.552Z,10.80
2018-08-04T18:06:30.654Z,11.03
2018-08-04T18:08:59.167Z,11.07
2018-08-04T18:11:27.514Z,20.23
2018-08-04T18:13:55.594Z,22.57
2018-08-04T18:16:23.691Z,22.17
2018-08-04T18:18:51.951Z,23.67
2018-08-04T18:21:20.057Z,21.27
2018-08-04T18:23:48.220Z,21.57
2018-08-04T18:26:16.629Z,29.97
2018-08-04T18:28:44.730Z,20.23
2018-08-04T18:31:12.788Z,21.03
2018-08-04T18:33:40.893Z,17.30
2018-08-04T18:36:09.052Z,17.63
2018-08-04T18:38:37.159Z,12.70
2018-08-04T18:41:05.225Z,14.97
2018-08-04T18:43:33.318Z,16.63
2018-08-04T18:46:01.389Z,15.90
2018-08-04T18:48:29.472Z,12.20
2018-08-04T18:50:57.587Z,14.37
2018-08-04T18:53:25.690Z,12.30
2018-08-04T18:55:54.057Z,17.53
2018-08-04T18:58:22.226Z,15.33
2018-08-04T19:00:50.324Z,14.47
2018-08-04T19:03:18.413Z,14.33
2018-08-04T19:05:46.506Z,12.70
2018-08-04T19:08:14.623Z,13.40
2018-08-04T19:10:42.863Z,11.90
2018-08-04T19:13:11.576Z,12.40
2018-08-04T19:15:39.666Z,12.80
2018-08-04T19:18:07.774Z,13.03
2018-08-04T19:20:35.857Z,12.60
2018-08-04T19:23:04.141Z,12.50
2018-08-04T19:25:34.096Z,12.03
2018-08-04T19:28:02.806Z,11.97
2018-08-04T19:30:30.906Z,12.27
2018-08-04T19:32:59.011Z,13.30
2018-08-04T19:35:27.203Z,11.37
2018-08-04T19:37:55.721Z,11.40
2018-08-04T19:40:24.657Z,10.37
2018-08-04T19:42:52.802Z,10.33
2018-08-04T19:45:20.876Z,10.40
2018-08-04T19:47:49.996Z,10.40
2018-08-04T19:50:18.070Z,10.43
2018-08-04T19:52:46.138Z,10.63
2018-08-04T19:55:14.226Z,10.80
2018-08-04T19:57:42.342Z,11.40
2018-08-04T20:00:10.454Z,11.93
2018-08-04T20:02:38.586Z,12.43
2018-08-04T20:05:06.654Z,12.67
2018-08-04T20:07:34.729Z,12.50
2018-08-04T20:10:02.875Z,13.47
2018-08-04T20:12:31.086Z,13.07
2018-08-04T20:15:00.142Z,13.70
2018-08-04T20:17:28.641Z,15.03
2018-08-04T20:19:56.801Z,14.80
2018-08-04T20:22:26.047Z,14.57
2018-08-04T20:24:54.801Z,14.93
2018-08-04T20:27:22.917Z,14.70
2018-08-04T20:29:51.279Z,14.43
2018-08-04T20:32:19.345Z,13.80
2018-08-04T20:34:47.455Z,14.67
2018-08-04T20:37:16.464Z,14.43
2018-08-04T20:39:44.648Z,14.57
2018-08-04T20:42:12.751Z,15.70
2018-08-04T20:44:41.490Z,15.40
2018-08-04T20:47:09.622Z,14.70
2018-08-04T20:49:37.714Z,14.00
2018-08-04T20:52:05.805Z,15.43
2018-08-04T20:54:33.918Z,14.70
2018-08-04T20:57:02.037Z,13.97
2018-08-04T20:59:30.136Z,13.83
2018-08-04T21:01:59.480Z,13.77
2018-08-04T21:04:28.094Z,13.40
2018-08-04T21:06:56.195Z,13.40
2018-08-04T21:09:24.412Z,13.27
2018-08-04T21:11:54.019Z,14.63
2018-08-04T21:14:23.371Z,16.00
2018-08-04T21:16:52.255Z,12.90
2018-08-04T21:19:21.411Z,13.37
2018-08-04T21:21:49.582Z,13.43
2018-08-04T21:24:18.869Z,12.97
2018-08-04T21:26:47.470Z,12.30
2018-08-04T21:29:15.494Z,13.43
2018-08-04T21:31:43.693Z,12.57
2018-08-04T21:34:12.343Z,13.00
2018-08-04T21:36:40.732Z,13.20
2018-08-04T21:39:11.257Z,12.33
2018-08-04T21:41:39.413Z,12.57
2018-08-04T21:44:07.582Z,13.07
2018-08-04T21:46:44.546Z,12.50
2018-08-04T21:49:12.877Z,12.00
2018-08-04T21:51:44.974Z,12.40
2018-08-04T21:54:14.109Z,11.47
2018-08-04T21:56:42.718Z,11.60
2018-08-04T21:59:11.021Z,11.13
2018-08-04T22:01:43.482Z,11.20
2018-08-04T22:04:11.638Z,11.33
2018-08-04T22:06:54.987Z,10.83
2018-08-04T22:09:24.515Z,10.60
2018-08-04T22:11:52.659Z,10.53
2018-08-04T22:14:20.788Z,10.47
2018-08-04T22:16:48.891Z,10.47
2018-08-04T22:19:17.070Z,10.70
2018-08-04T22:21:45.199Z,10.60
2018-08-04T22:24:13.343Z,10.37
2018-08-04T22:26:41.480Z,11.13
2018-08-04T22:29:09.595Z,10.17
2018-08-04T22:31:37.697Z,10.33
2018-08-04T22:34:09.553Z,10.23
2018-08-04T22:36:37.685Z,10.00
2018-08-04T22:39:07.087Z,10.37
2018-08-04T22:41:35.507Z,10.90
2018-08-04T22:44:03.627Z,10.77
2018-08-04T22:46:31.722Z,10.33
2018-08-04T22:48:59.927Z,10.30
2018-08-04T22:51:29.065Z,9.93
2018-08-04T22:53:57.317Z,10.63
2018-08-04T22:56:25.588Z,11.37
2018-08-04T22:58:53.701Z,10.67
2018-08-04T23:01:21.797Z,10.73
2018-08-04T23:03:49.915Z,10.77
2018-08-04T23:06:18.079Z,10.60
2018-08-04T23:08:46.200Z,10.87
2018-08-04T23:11:14.320Z,11.00
2018-08-04T23:13:42.466Z,11.03
2018-08-04T23:16:10.582Z,11.10
2018-08-04T23:18:48.376Z,11.30
2018-08-04T23:21:16.525Z,11.03
2018-08-04T23:23:44.608Z,10.73
2018-08-04T23:26:12.696Z,11.03
2018-08-04T23:28:40.809Z,10.60
2018-08-04T23:31:08.886Z,10.67
2018-08-04T23:33:37.027Z,11.50
2018-08-04T23:36:05.131Z,10.67
2018-08-04T23:38:33.237Z,11.53
2018-08-04T23:41:01.309Z,10.93
2018-08-04T23:43:29.431Z,11.00
2018-08-04T23:45:57.507Z,11.50
2018-08-04T23:48:25.606Z,11.30
2018-08-04T23:50:53.739Z,10.53
2018-08-04T23:53:21.870Z,11.73
2018-08-04T23:55:49.977Z,11.77
2018-08-04T23:58:18.057Z,11.90
